Air Sicilia Virtual Airways - Route

Air Sicilia Virtual Airways - SIC098L

( ES ) LEMG
Málaga Airport
MáLAGA ( AGP )
plane_to ( MA ) GMTT
Ibn Batouta Airport
TANGIER ( TNG )
Mediterraneo TOUR VFR - LEG: 18

AIRPORT NEAR NAVIGATION AIDS

Type Name Frequency
VOR-DME Martin 112600 KHZ
VOR-DME Malaga 112000 KHZ
VOR-DME Malaga 113550 KHZ
NDB Malaga 330 KHZ

METAR / TAF
LEMG 180430Z 26003KT CAVOK 21/14 Q1012 NOSIG

RUNWAY INFORMATION

Runway Runway length Runway width Runway elevation Runway displaced threshold Runway heading
12 9022 148 52 0 119
30 9022 148 31 0 299
13 10500 148 52 0 133
31 10500 148 31 0 313

AIRPORT FREQUENCIES

Type Name Frequency
A/D APP 123.85 MHZ
ATIS ATIS 120.375 MHZ
CLD CLR DEL 121.875 MHZ
GND GND-W 121.7 MHZ
GND GND-E 121.95 MHZ
TWR TWR-W (RWY 118.15 MHZ
TWR TWR-E (RWY 118.775 MHZ

AIRPORT NEAR NAVIGATION AIDS

Type Name Frequency
VOR-DME Tanger 115900 KHZ

METAR / TAF
GMTT 180430Z 19004KT 130V230 CAVOK 22/18 Q1013 NOSIG

RUNWAY INFORMATION

Runway Runway length Runway width Runway elevation Runway displaced threshold Runway heading
07 6562 98 0 0 68.8
25 6562 98 0 0 248.8
10 11483 148 20 0 96
28 11483 148 62 1640 276

AIRPORT FREQUENCIES

Type Name Frequency
APP TANGER APP 121.2 MHZ
TWR TANGER TWR 119.5 MHZ

Flightplan

passando per MARABELLA

Air Sicilia Virtual Airways Fleets

AVAILABLE AIRCRAFTS for route at this time in Málaga Airport
C172 - Cessna 172 Skyhawk
( US ) Cessna

Aircraft in fleet: 13

104 NM

Distance in nautical miles.

€ 100,00

Ticket price for this flight.

Nr. 18

Leg



12-11-2018
Aerosoft Airport Rio de Janeiro International V2.0 XP

L'Aeroporto Internazionale di Rio de Janeiro-Galeão (IATA: GIG, ICAO: SBGL), costruito nel 1952 nel quartiere di Ilha do Governador ed intitolato al musicista Antônio Carlos Jobim, è il principale aeroporto internazio ....


15-10-2018
Aerosoft A320 Family professional

La gamma di aeromobili A320 è una delle più comuni nei cieli. Questi aerei di linea a doppio-getto a corto e medio raggio si sono dimostrati convenienti, affidabili e prontamente disponibili, rendendoli le opzioni migl ....


10-10-2018
Motore critico ( Critical Engine )

Il motore critico di un velivolo ad ala fissa multi-motore è il motore che, in caso di guasto, influirebbe negativamente sulle prestazioni o sulla capacità di manovra di un aereo. Sui velivoli ad elica, vi è un ....


04-10-2018
Aerosoft Dortmund XP

Scopri il centro della regione della Ruhr su XPlane 11 - lo scenario Dortmund XP è una ricostruzione completa della città di Dortmund per il simulatore di volo targato Laminar. Oltre all'intera area urbana di Dortmu ....


07-08-2018
Aerosoft Professional Flight Planner PFPX

PFPX - Professional Flight Planner X - è un nuovo ed innovativo strumento di pianificazione del volo sviluppato da piloti e dispatcher del mondo reale. È un'aggiunta preziosa e realistica alla tua esperienza di simulaz ....